YOOB weather

CLOSED Cooranbong Airport
New South Wales, Australia

Public forecast

Using degrees Celsius for public forecast. Weather courtesy of forecast.io.

Closest aviation weather report (METAR) to Cooranbong Airport

Closest report is Newcastle Airport, 24.6 nm (45.6 km) NE. Retrieved 2020/03/31 10:00 UTC (7 minutes ago):

YWLM 311000Z AUTO 00000KT 9999 // NCD 20/19 Q1017

Closest aviation forecast (TAF) to Cooranbong Airport

Forecast is more than 12 hours old.

Closest forecast is Newcastle Airport, 24.6 nm (45.6 km) NE. Retrieved 2020/03/30 18:36 UTC (16 hours ago):

TAF YWLM 301632Z 3018/3118 31008KT CAVOK FM310000 17012KT 9999 SCT020 SCT030 FM310800 15008KT 9999 SCT020 FM311200 VRB03KT 9999 SCT015 BKN025 PROB30 3018/3021 3000 BR BKN003